createdAt,value
2017-10-02T00:01:50.348Z,99453
2017-10-02T00:04:18.423Z,99456
2017-10-02T00:06:47.304Z,99455
2017-10-02T00:09:15.384Z,99462
2017-10-02T00:11:44.219Z,99455
2017-10-02T00:14:13.067Z,99451
2017-10-02T00:16:41.903Z,99455
2017-10-02T00:19:09.995Z,99447
2017-10-02T00:21:38.071Z,99440
2017-10-02T00:24:06.155Z,99449
2017-10-02T00:26:34.226Z,99441
2017-10-02T00:29:02.314Z,99445
2017-10-02T00:31:30.392Z,99437
2017-10-02T00:33:58.474Z,99448
2017-10-02T00:36:27.311Z,99439
2017-10-02T00:38:55.396Z,99438
2017-10-02T00:41:23.476Z,99430
2017-10-02T00:43:51.570Z,99428
2017-10-02T00:46:19.651Z,99435
2017-10-02T00:48:48.512Z,99439
2017-10-02T00:51:16.591Z,99426
2017-10-02T00:53:44.666Z,99423
2017-10-02T00:56:12.756Z,99428
2017-10-02T00:58:41.602Z,99418
2017-10-02T01:01:09.683Z,99410
2017-10-02T01:03:37.759Z,99408
2017-10-02T01:06:05.842Z,99401
2017-10-02T01:08:33.944Z,99403
2017-10-02T01:11:02.795Z,99402
2017-10-02T01:13:30.869Z,99397
2017-10-02T01:15:58.961Z,99389
2017-10-02T01:18:27.148Z,99398
2017-10-02T01:20:56.004Z,99387
2017-10-02T01:23:24.080Z,99389
2017-10-02T01:25:52.151Z,99384
2017-10-02T01:28:20.245Z,99391
2017-10-02T01:30:48.323Z,99377
2017-10-02T01:33:16.400Z,99373
2017-10-02T01:35:44.481Z,99367
2017-10-02T01:38:13.343Z,99367
2017-10-02T01:40:41.407Z,99368
2017-10-02T01:43:09.500Z,99375
2017-10-02T01:45:37.580Z,99369
2017-10-02T01:48:06.441Z,99363
2017-10-02T01:50:34.513Z,99357
2017-10-02T01:53:02.582Z,99355
2017-10-02T01:55:30.664Z,99359
2017-10-02T01:57:58.732Z,99361
2017-10-02T02:00:26.828Z,99366
2017-10-02T02:02:54.922Z,99370
2017-10-02T02:05:23.764Z,99369
2017-10-02T02:07:51.834Z,99370
2017-10-02T02:10:19.916Z,99369
2017-10-02T02:12:47.982Z,99362
2017-10-02T02:15:16.068Z,99354
2017-10-02T02:17:44.148Z,99349
2017-10-02T02:20:12.227Z,99353
2017-10-02T02:22:40.297Z,99358
2017-10-02T02:25:08.376Z,99364
2017-10-02T02:27:36.443Z,99364
2017-10-02T02:30:04.519Z,99369
2017-10-02T02:32:32.592Z,99362
2017-10-02T02:35:00.664Z,99360
2017-10-02T02:37:28.821Z,99368
2017-10-02T02:39:56.941Z,99368
2017-10-02T02:42:25.775Z,99363
2017-10-02T02:44:53.860Z,99360
2017-10-02T02:47:21.935Z,99360
2017-10-02T02:49:50.008Z,99363
2017-10-02T02:52:18.083Z,99352
2017-10-02T02:54:46.464Z,99347
2017-10-02T02:57:14.551Z,99342
2017-10-02T02:59:43.383Z,99343
2017-10-02T03:02:11.459Z,99333
2017-10-02T03:04:40.283Z,99328
2017-10-02T03:07:08.369Z,99326
2017-10-02T03:09:36.439Z,99337
2017-10-02T03:12:04.565Z,99329
2017-10-02T03:14:32.643Z,99336
2017-10-02T03:17:00.735Z,99329
2017-10-02T03:19:28.804Z,99336
2017-10-02T03:21:56.888Z,99328
2017-10-02T03:24:24.967Z,99339
2017-10-02T03:26:53.056Z,99342
2017-10-02T03:29:21.127Z,99334
2017-10-02T03:31:49.195Z,99335
2017-10-02T03:34:17.280Z,99335
2017-10-02T03:36:46.130Z,99321
2017-10-02T03:39:14.231Z,99321
2017-10-02T03:41:42.303Z,99315
2017-10-02T03:44:10.383Z,99314
2017-10-02T03:46:38.688Z,99311
2017-10-02T03:49:06.758Z,99315
2017-10-02T03:51:34.823Z,99304
2017-10-02T03:54:02.901Z,99308
2017-10-02T03:56:31.735Z,99305
2017-10-02T03:58:59.824Z,99294
2017-10-02T04:01:27.899Z,99304
2017-10-02T04:03:55.978Z,99296
2017-10-02T04:06:24.051Z,99296
2017-10-02T04:08:52.124Z,99309
2017-10-02T04:11:20.200Z,99309
2017-10-02T04:13:49.093Z,99312
2017-10-02T04:16:17.175Z,99304
2017-10-02T04:18:46.032Z,99316
2017-10-02T04:21:14.103Z,99306
2017-10-02T04:23:42.175Z,99310
2017-10-02T04:26:10.259Z,99316
2017-10-02T04:28:38.340Z,99316
2017-10-02T04:31:06.416Z,99316
2017-10-02T04:33:34.488Z,99316
2017-10-02T04:36:02.570Z,99321
2017-10-02T04:38:31.417Z,99323
2017-10-02T04:40:59.500Z,99309
2017-10-02T04:43:27.571Z,99312
2017-10-02T04:45:55.674Z,99309
2017-10-02T04:48:24.541Z,99298
2017-10-02T04:50:52.612Z,99308
2017-10-02T04:53:20.712Z,99300
2017-10-02T04:55:49.547Z,99311
2017-10-02T04:58:17.632Z,99297
2017-10-02T05:00:45.698Z,99294
2017-10-02T05:03:13.801Z,99306
2017-10-02T05:05:41.871Z,99296
2017-10-02T05:08:09.959Z,99298
2017-10-02T05:10:38.031Z,99296
2017-10-02T05:13:06.111Z,99294
2017-10-02T05:15:34.183Z,99293
2017-10-02T05:18:03.028Z,99290
2017-10-02T05:20:31.127Z,99289
2017-10-02T05:22:59.202Z,99276
2017-10-02T05:25:27.276Z,99275
2017-10-02T05:27:55.375Z,99289
2017-10-02T05:30:24.211Z,99287
2017-10-02T05:32:52.307Z,99289
2017-10-02T05:35:20.384Z,99283
2017-10-02T05:37:48.458Z,99288
2017-10-02T05:40:16.540Z,99288
2017-10-02T05:42:45.428Z,99283
2017-10-02T05:45:13.511Z,99266
2017-10-02T05:47:42.374Z,99264
2017-10-02T05:50:10.482Z,99268
2017-10-02T05:52:39.331Z,99268
2017-10-02T05:55:07.421Z,99260
2017-10-02T05:57:35.494Z,99258
2017-10-02T06:00:03.583Z,99256
2017-10-02T06:02:32.435Z,99248
2017-10-02T06:05:00.511Z,99246
2017-10-02T06:07:28.582Z,99239
2017-10-02T06:09:56.682Z,99243
2017-10-02T06:12:24.759Z,99232
2017-10-02T06:14:52.831Z,99232
2017-10-02T06:17:20.923Z,99238
2017-10-02T06:19:49.763Z,99234
2017-10-02T06:22:17.849Z,99230
2017-10-02T06:24:46.191Z,99230
2017-10-02T06:27:14.283Z,99234
2017-10-02T06:29:42.408Z,99235
2017-10-02T06:32:11.268Z,99248
2017-10-02T06:34:39.361Z,99237
2017-10-02T06:37:07.430Z,99242
2017-10-02T06:39:35.500Z,99240
2017-10-02T06:42:03.599Z,99241
2017-10-02T06:44:31.687Z,99233
2017-10-02T06:46:59.832Z,99239
2017-10-02T06:49:28.683Z,99242
2017-10-02T06:51:56.816Z,99241
2017-10-02T06:54:24.897Z,99236
2017-10-02T06:56:52.979Z,99228
2017-10-02T06:59:21.112Z,99234
2017-10-02T07:01:49.191Z,99236
2017-10-02T07:04:18.043Z,99237
2017-10-02T07:06:46.127Z,99242
2017-10-02T07:09:14.214Z,99233
2017-10-02T07:11:42.316Z,99228
2017-10-02T07:14:10.443Z,99228
2017-10-02T07:16:38.528Z,99227
2017-10-02T07:19:06.626Z,99227
2017-10-02T07:21:35.476Z,99224
2017-10-02T07:24:03.575Z,99215
2017-10-02T07:26:31.691Z,99216
2017-10-02T07:29:00.532Z,99216
2017-10-02T07:31:28.612Z,99209
2017-10-02T07:33:57.468Z,99219
2017-10-02T07:36:25.588Z,99222
2017-10-02T07:38:54.432Z,99219
2017-10-02T07:41:22.519Z,99219
2017-10-02T07:43:50.590Z,99201
2017-10-02T07:46:18.679Z,99203
2017-10-02T07:48:46.803Z,99201
2017-10-02T07:51:15.665Z,99211
2017-10-02T07:53:44.537Z,99199
2017-10-02T07:56:13.422Z,99199
2017-10-02T07:58:41.524Z,99190
2017-10-02T08:01:09.679Z,99190
2017-10-02T08:03:38.540Z,99207
2017-10-02T08:06:06.623Z,99194
2017-10-02T08:08:34.786Z,99194
2017-10-02T08:11:02.876Z,99197
2017-10-02T08:13:30.984Z,99197
2017-10-02T08:15:59.178Z,99188
2017-10-02T08:18:27.276Z,99193
2017-10-02T08:20:55.400Z,99190
2017-10-02T08:23:24.271Z,99188
2017-10-02T08:25:53.152Z,99190
2017-10-02T08:28:21.256Z,99184
2017-10-02T08:30:50.113Z,99191
2017-10-02T08:33:18.187Z,99194
2017-10-02T08:35:46.408Z,99196
2017-10-02T08:38:14.551Z,99182
2017-10-02T08:40:43.417Z,99185
2017-10-02T08:43:11.587Z,99190
2017-10-02T08:45:39.680Z,99165
2017-10-02T08:48:07.770Z,99167
2017-10-02T08:50:36.640Z,99167
2017-10-02T08:53:04.750Z,99156
2017-10-02T08:55:33.603Z,99159
2017-10-02T08:58:01.691Z,99159
2017-10-02T09:00:31.749Z,99164
2017-10-02T09:02:59.846Z,99165
2017-10-02T09:05:27.961Z,99154
2017-10-02T09:07:56.821Z,99163
2017-10-02T09:10:24.905Z,99161
2017-10-02T09:12:52.996Z,99152
2017-10-02T09:15:21.851Z,99154
2017-10-02T09:17:49.947Z,99150
2017-10-02T09:20:18.037Z,99149
2017-10-02T09:22:46.909Z,99140
2017-10-02T09:25:15.173Z,99144
2017-10-02T09:27:43.271Z,99136
2017-10-02T09:30:12.153Z,99145
2017-10-02T09:32:40.232Z,99138
2017-10-02T09:35:08.308Z,99137
2017-10-02T09:37:37.190Z,99135
2017-10-02T09:40:05.267Z,99131
2017-10-02T09:42:34.155Z,99122
2017-10-02T09:45:02.271Z,99126
2017-10-02T09:47:30.368Z,99129
2017-10-02T09:49:58.524Z,99127
2017-10-02T09:52:26.643Z,99125
2017-10-02T09:54:54.736Z,99128
2017-10-02T09:57:23.595Z,99119
2017-10-02T09:59:51.757Z,99114
2017-10-02T10:02:19.852Z,99121
2017-10-02T10:04:47.949Z,99135
2017-10-02T10:07:16.811Z,99123
2017-10-02T10:09:44.912Z,99121
2017-10-02T10:12:13.792Z,99127
2017-10-02T10:14:41.892Z,99128
2017-10-02T10:17:10.016Z,99122
2017-10-02T10:19:38.106Z,99104
2017-10-02T10:22:06.204Z,99102
2017-10-02T10:24:35.072Z,99090
2017-10-02T10:27:03.160Z,99093
2017-10-02T10:29:32.035Z,99096
2017-10-02T10:32:00.124Z,99093
2017-10-02T10:34:29.068Z,99096
2017-10-02T10:36:57.147Z,99081
2017-10-02T10:39:25.304Z,99072
2017-10-02T10:41:53.398Z,99073
2017-10-02T10:44:21.520Z,99072
2017-10-02T10:46:50.384Z,99064
2017-10-02T10:49:19.307Z,99055
2017-10-02T10:51:48.168Z,99065
2017-10-02T10:54:16.252Z,99052
2017-10-02T10:56:45.120Z,99053
2017-10-02T10:59:13.212Z,99042
2017-10-02T11:01:41.303Z,99044
2017-10-02T11:04:10.152Z,99048
2017-10-02T11:06:38.239Z,99036
2017-10-02T11:09:06.311Z,99034
2017-10-02T11:11:34.387Z,99017
2017-10-02T11:14:02.455Z,99006
2017-10-02T11:16:30.543Z,99008
2017-10-02T11:18:59.424Z,99001
2017-10-02T11:21:27.495Z,99002
2017-10-02T11:23:55.624Z,99006
2017-10-02T11:26:23.692Z,98989
2017-10-02T11:28:52.541Z,98993
2017-10-02T11:31:21.387Z,98984
2017-10-02T11:33:49.466Z,98982
2017-10-02T11:36:17.536Z,98990
2017-10-02T11:38:45.615Z,98979
2017-10-02T11:41:13.686Z,98985
2017-10-02T11:43:42.556Z,98989
2017-10-02T11:46:10.677Z,98979
2017-10-02T11:48:38.747Z,98980
2017-10-02T11:51:06.819Z,98973
2017-10-02T11:53:34.901Z,98972
2017-10-02T11:56:02.976Z,98967
2017-10-02T11:58:31.830Z,98971
2017-10-02T12:00:59.902Z,98964
2017-10-02T12:03:27.971Z,98963
2017-10-02T12:05:57.282Z,98965
2017-10-02T12:08:25.342Z,98969
2017-10-02T12:10:53.420Z,98966
2017-10-02T12:13:21.638Z,98964
2017-10-02T12:15:50.488Z,98974
2017-10-02T12:18:18.570Z,98964
2017-10-02T12:20:46.651Z,98963
2017-10-02T12:23:14.733Z,98964
2017-10-02T12:25:42.807Z,98965
2017-10-02T12:28:11.363Z,98973
2017-10-02T12:30:39.447Z,98958
2017-10-02T12:33:07.511Z,98954
2017-10-02T12:35:35.606Z,98949
2017-10-02T12:38:16.738Z,98940
2017-10-02T12:40:46.112Z,98949
2017-10-02T12:43:14.956Z,98935
2017-10-02T12:45:43.019Z,98943
2017-10-02T12:48:11.112Z,98945
2017-10-02T12:50:39.198Z,98941
2017-10-02T12:53:07.270Z,98934
2017-10-02T12:55:35.336Z,98927
2017-10-02T12:58:03.424Z,98933
2017-10-02T13:00:32.252Z,98932
2017-10-02T13:03:00.334Z,98939
2017-10-02T13:05:28.452Z,98932
2017-10-02T13:07:56.538Z,98928
2017-10-02T13:10:25.379Z,98913
2017-10-02T13:12:53.476Z,98914
2017-10-02T13:15:21.549Z,98909
2017-10-02T13:17:49.628Z,98911
2017-10-02T13:20:17.707Z,98898
2017-10-02T13:22:45.779Z,98902
2017-10-02T13:25:14.628Z,98905
2017-10-02T13:27:42.692Z,98887
2017-10-02T13:30:10.779Z,98898
2017-10-02T13:32:38.851Z,98894
2017-10-02T13:35:06.927Z,98884
2017-10-02T13:37:35.040Z,98877
2017-10-02T13:40:03.128Z,98883
2017-10-02T13:42:31.205Z,98888
2017-10-02T13:45:00.050Z,98892
2017-10-02T13:47:28.140Z,98888
2017-10-02T13:49:56.215Z,98880
2017-10-02T13:52:24.307Z,98890
2017-10-02T13:54:53.176Z,98893
2017-10-02T13:57:21.231Z,98909
2017-10-02T13:59:49.318Z,98900
2017-10-02T14:02:17.382Z,98903
2017-10-02T14:04:45.468Z,98890
2017-10-02T14:07:13.544Z,98893
2017-10-02T14:09:41.616Z,98896
2017-10-02T14:12:09.700Z,98895
2017-10-02T14:14:38.527Z,98903
2017-10-02T14:17:06.635Z,98894
2017-10-02T14:19:34.695Z,98888
2017-10-02T14:22:02.776Z,98889
2017-10-02T14:24:30.848Z,98885
2017-10-02T14:26:58.925Z,98880
2017-10-02T14:29:27.003Z,98886
2017-10-02T14:31:55.089Z,98889
2017-10-02T14:34:23.923Z,98900
2017-10-02T14:36:51.991Z,98902
2017-10-02T14:39:20.066Z,98905
2017-10-02T14:41:48.145Z,98916
2017-10-02T14:44:16.227Z,98915
2017-10-02T14:46:44.303Z,98918
2017-10-02T14:49:12.402Z,98912
2017-10-02T14:51:40.475Z,98908
2017-10-02T14:54:08.567Z,98908
2017-10-02T14:56:37.424Z,98910
2017-10-02T14:59:05.498Z,98912
2017-10-02T15:01:33.605Z,98904
2017-10-02T15:04:01.718Z,98900
2017-10-02T15:06:29.795Z,98903
2017-10-02T15:08:57.888Z,98895
2017-10-02T15:11:25.968Z,98896
2017-10-02T15:13:54.034Z,98900
2017-10-02T15:16:22.119Z,98888
2017-10-02T15:18:50.192Z,98875
2017-10-02T15:21:18.276Z,98878
2017-10-02T15:23:47.137Z,98873
2017-10-02T15:26:15.279Z,98869
2017-10-02T15:28:43.372Z,98873
2017-10-02T15:31:11.468Z,98866
2017-10-02T15:33:39.635Z,98855
2017-10-02T15:36:07.747Z,98855
2017-10-02T15:38:36.591Z,98845
2017-10-02T15:41:04.749Z,98832
2017-10-02T15:43:32.856Z,98839
2017-10-02T15:46:00.939Z,98830
2017-10-02T15:48:29.040Z,98833
2017-10-02T15:50:57.143Z,98838
2017-10-02T15:53:25.244Z,98839
2017-10-02T15:55:53.328Z,98852
2017-10-02T15:58:21.420Z,98858
2017-10-02T16:00:50.267Z,98848
2017-10-02T16:03:18.365Z,98845
2017-10-02T16:05:46.435Z,98850
2017-10-02T16:08:14.525Z,98847
2017-10-02T16:10:43.376Z,98857
2017-10-02T16:13:11.490Z,98848
2017-10-02T16:15:40.364Z,98852
2017-10-02T16:18:08.443Z,98853
2017-10-02T16:20:36.528Z,98852
2017-10-02T16:23:05.376Z,98847
2017-10-02T16:25:33.515Z,98855
2017-10-02T16:28:01.593Z,98841
2017-10-02T16:30:30.448Z,98838
2017-10-02T16:32:58.601Z,98835
2017-10-02T16:35:26.687Z,98842
2017-10-02T16:37:54.763Z,98840
2017-10-02T16:40:22.843Z,98843
2017-10-02T16:42:50.919Z,98840
2017-10-02T16:45:19.220Z,98844
2017-10-02T16:47:47.304Z,98847
2017-10-02T16:50:16.155Z,98849
2017-10-02T16:52:45.011Z,98840
2017-10-02T16:55:13.088Z,98844
2017-10-02T16:57:41.166Z,98838
2017-10-02T17:00:09.247Z,98835
2017-10-02T17:02:37.327Z,98841
2017-10-02T17:05:05.403Z,98850
2017-10-02T17:07:33.496Z,98850
2017-10-02T17:10:02.333Z,98842
2017-10-02T17:12:30.408Z,98842
2017-10-02T17:14:58.487Z,98834
2017-10-02T17:17:26.575Z,98825
2017-10-02T17:19:54.647Z,98826
2017-10-02T17:22:22.732Z,98826
2017-10-02T17:24:51.576Z,98826
2017-10-02T17:27:19.660Z,98830
2017-10-02T17:29:47.749Z,98822
2017-10-02T17:32:15.850Z,98835
2017-10-02T17:34:44.697Z,98838
2017-10-02T17:37:12.779Z,98836
2017-10-02T17:39:40.869Z,98832
2017-10-02T17:42:08.939Z,98835
2017-10-02T17:44:37.041Z,98834
2017-10-02T17:47:05.879Z,98841
2017-10-02T17:49:33.991Z,98841
2017-10-02T17:52:02.884Z,98838
2017-10-02T17:54:31.752Z,98840
2017-10-02T17:56:59.908Z,98840
2017-10-02T17:59:27.997Z,98834
2017-10-02T18:01:56.093Z,98838
2017-10-02T18:04:24.960Z,98843
2017-10-02T18:06:53.040Z,98831
2017-10-02T18:09:21.112Z,98840
2017-10-02T18:11:49.196Z,98830
2017-10-02T18:14:18.044Z,98834
2017-10-02T18:16:46.887Z,98828
2017-10-02T18:19:15.758Z,98829
2017-10-02T18:21:43.855Z,98824
2017-10-02T18:24:12.784Z,98826
2017-10-02T18:26:40.872Z,98824
2017-10-02T18:29:08.942Z,98820
2017-10-02T18:31:37.024Z,98833
2017-10-02T18:34:05.104Z,98831
2017-10-02T18:36:33.190Z,98823
2017-10-02T18:39:01.264Z,98828
2017-10-02T18:41:29.361Z,98830
2017-10-02T18:43:58.200Z,98835
2017-10-02T18:46:26.280Z,98835
2017-10-02T18:48:54.371Z,98832
2017-10-02T18:51:22.444Z,98828
2017-10-02T18:53:50.523Z,98833
2017-10-02T18:56:19.366Z,98835
2017-10-02T18:58:47.445Z,98835
2017-10-02T19:01:15.524Z,98832
2017-10-02T19:03:43.611Z,98830
2017-10-02T19:06:11.700Z,98835
2017-10-02T19:08:39.776Z,98828
2017-10-02T19:11:07.844Z,98826
2017-10-02T19:13:35.927Z,98831
2017-10-02T19:16:04.760Z,98829
2017-10-02T19:18:33.611Z,98829
2017-10-02T19:21:02.455Z,98828
2017-10-02T19:23:30.526Z,98819
2017-10-02T19:25:58.603Z,98815
2017-10-02T19:28:26.684Z,98810
2017-10-02T19:30:54.761Z,98810
2017-10-02T19:33:22.841Z,98805
2017-10-02T19:35:50.931Z,98805
2017-10-02T19:38:19.771Z,98796
2017-10-02T19:40:47.855Z,98788
2017-10-02T19:43:15.960Z,98787
2017-10-02T19:45:44.039Z,98792
2017-10-02T19:48:12.879Z,98791
2017-10-02T19:50:40.954Z,98781
2017-10-02T19:53:09.029Z,98782
2017-10-02T19:55:37.124Z,98783
2017-10-02T19:58:05.200Z,98780
2017-10-02T20:00:33.263Z,98791
2017-10-02T20:03:01.365Z,98775
2017-10-02T20:05:30.209Z,98785
2017-10-02T20:07:58.318Z,98791
2017-10-02T20:10:26.362Z,98792
2017-10-02T20:12:54.451Z,98775
2017-10-02T20:15:22.531Z,98783
2017-10-02T20:17:50.626Z,98776
2017-10-02T20:20:19.472Z,98769
2017-10-02T20:22:47.571Z,98777
2017-10-02T20:25:15.640Z,98766
2017-10-02T20:27:43.729Z,98754
2017-10-02T20:30:12.568Z,98764
2017-10-02T20:32:40.675Z,98768
2017-10-02T20:35:08.755Z,98755
2017-10-02T20:37:36.834Z,98765
2017-10-02T20:40:05.688Z,98764
2017-10-02T20:42:33.764Z,98765
2017-10-02T20:45:01.852Z,98757
2017-10-02T20:47:29.930Z,98762
2017-10-02T20:49:58.020Z,98753
2017-10-02T20:52:26.858Z,98771
2017-10-02T20:54:54.947Z,98759
2017-10-02T20:57:23.024Z,98769
2017-10-02T20:59:51.113Z,98753
2017-10-02T21:02:19.188Z,98751
2017-10-02T21:04:47.973Z,98754
2017-10-02T21:07:16.055Z,98750
2017-10-02T21:09:44.129Z,98748
2017-10-02T21:12:12.982Z,98750
2017-10-02T21:14:41.050Z,98749
2017-10-02T21:17:09.131Z,98746
2017-10-02T21:19:37.200Z,98738
2017-10-02T21:22:05.288Z,98743
2017-10-02T21:24:33.358Z,98747
2017-10-02T21:27:01.434Z,98748
2017-10-02T21:29:29.503Z,98742
2017-10-02T21:31:57.588Z,98741
2017-10-02T21:34:25.661Z,98730
2017-10-02T21:36:53.736Z,98739
2017-10-02T21:39:21.817Z,98738
2017-10-02T21:41:49.895Z,98749
2017-10-02T21:44:18.773Z,98742
2017-10-02T21:46:46.844Z,98748
2017-10-02T21:49:15.148Z,98740
2017-10-02T21:51:44.003Z,98744
2017-10-02T21:54:12.084Z,98735
2017-10-02T21:56:40.160Z,98728
2017-10-02T21:59:08.252Z,98736
2017-10-02T22:01:37.101Z,98732
2017-10-02T22:04:06.624Z,98735
2017-10-02T22:06:34.708Z,98739
2017-10-02T22:09:02.800Z,98746
2017-10-02T22:11:30.919Z,98738
2017-10-02T22:13:58.997Z,98743
2017-10-02T22:16:27.784Z,98745
2017-10-02T22:18:55.852Z,98748
2017-10-02T22:21:24.703Z,98748
2017-10-02T22:23:52.776Z,98745
2017-10-02T22:26:20.863Z,98742
2017-10-02T22:28:49.698Z,98739
2017-10-02T22:31:17.767Z,98731
2017-10-02T22:33:45.849Z,98728
2017-10-02T22:36:13.916Z,98722
2017-10-02T22:38:41.994Z,98722
2017-10-02T22:41:10.071Z,98732
2017-10-02T22:43:38.139Z,98735
2017-10-02T22:46:06.310Z,98729
2017-10-02T22:48:34.377Z,98728
2017-10-02T22:51:02.460Z,98721
2017-10-02T22:53:30.536Z,98718
2017-10-02T22:55:58.639Z,98715
2017-10-02T22:58:26.727Z,98718
2017-10-02T23:00:55.554Z,98717
2017-10-02T23:03:23.752Z,98722
2017-10-02T23:05:51.817Z,98716
2017-10-02T23:08:19.920Z,98713
2017-10-02T23:10:48.025Z,98713
2017-10-02T23:13:16.127Z,98710
2017-10-02T23:15:44.210Z,98716
2017-10-02T23:18:12.296Z,98720
2017-10-02T23:20:41.165Z,98715
2017-10-02T23:23:09.249Z,98712
2017-10-02T23:25:38.129Z,98706
2017-10-02T23:28:06.216Z,98713
2017-10-02T23:30:34.330Z,98707
2017-10-02T23:33:02.424Z,98709
2017-10-02T23:35:30.555Z,98709
2017-10-02T23:37:59.399Z,98704
2017-10-02T23:40:27.483Z,98699
2017-10-02T23:42:55.576Z,98712
2017-10-02T23:45:24.432Z,98716
2017-10-02T23:47:52.538Z,98718
2017-10-02T23:50:21.061Z,98712
2017-10-02T23:52:49.181Z,98704
2017-10-02T23:55:17.260Z,98709
2017-10-02T23:57:46.145Z,98704
